createdAt,value
2018-07-30T00:02:17.264Z,100633.63
2018-07-30T00:04:46.143Z,100640.98
2018-07-30T00:07:15.248Z,100639.12
2018-07-30T00:09:44.007Z,100638.84
2018-07-30T00:12:13.178Z,100636.69
2018-07-30T00:14:42.166Z,100634.77
2018-07-30T00:17:11.376Z,100632.32
2018-07-30T00:19:40.172Z,100639.63
2018-07-30T00:22:09.188Z,100634.45
2018-07-30T00:24:38.182Z,100633.91
2018-07-30T00:27:07.102Z,100636.28
2018-07-30T00:29:35.887Z,100633.78
2018-07-30T00:32:04.915Z,100633.77
2018-07-30T00:34:33.705Z,100637.58
2018-07-30T00:37:02.565Z,100632.40
2018-07-30T00:39:32.130Z,100637.30
2018-07-30T00:42:01.094Z,100641.70
2018-07-30T00:44:30.064Z,100639.80
2018-07-30T00:46:58.943Z,100649.84
2018-07-30T00:49:27.789Z,100641.31
2018-07-30T00:51:56.738Z,100635.48
2018-07-30T00:54:25.950Z,100638.83
2018-07-30T00:56:56.113Z,100641.95
2018-07-30T00:59:24.990Z,100647.02
2018-07-30T01:01:53.767Z,100642.05
2018-07-30T01:04:22.463Z,100637.34
2018-07-30T01:06:52.091Z,100640.87
2018-07-30T01:09:35.520Z,100638.62
2018-07-30T01:12:05.337Z,100642.02
2018-07-30T01:14:34.130Z,100645.67
2018-07-30T01:17:03.026Z,100645.83
2018-07-30T01:19:31.875Z,100652.73
2018-07-30T01:22:00.738Z,100647.92
2018-07-30T01:24:29.555Z,100651.01
2018-07-30T01:26:58.413Z,100650.80
2018-07-30T01:29:27.294Z,100648.72
2018-07-30T01:31:56.086Z,100654.44
2018-07-30T01:34:24.917Z,100650.64
2018-07-30T01:36:53.826Z,100650.14
2018-07-30T01:39:22.672Z,100653.45
2018-07-30T01:41:51.525Z,100652.10
2018-07-30T01:44:20.393Z,100651.00
2018-07-30T01:46:49.237Z,100646.14
2018-07-30T01:49:18.090Z,100653.50
2018-07-30T01:51:46.899Z,100658.66
2018-07-30T01:54:15.738Z,100665.19
2018-07-30T01:56:44.591Z,100664.88
2018-07-30T01:59:13.518Z,100664.34
2018-07-30T02:01:42.369Z,100668.69
2018-07-30T02:04:11.218Z,100661.59
2018-07-30T02:06:40.060Z,100665.37
2018-07-30T02:11:37.733Z,100663.22
2018-07-30T02:14:07.372Z,100663.52
2018-07-30T02:16:36.224Z,100665.44
2018-07-30T02:19:05.144Z,100664.70
2018-07-30T02:21:35.091Z,100669.12
2018-07-30T02:24:03.998Z,100670.02
2018-07-30T02:26:32.878Z,100670.88
2018-07-30T02:29:01.821Z,100670.65
2018-07-30T02:31:30.706Z,100673.95
2018-07-30T02:33:59.573Z,100677.23
2018-07-30T02:36:28.372Z,100679.14
2018-07-30T02:38:57.219Z,100677.52
2018-07-30T02:41:26.086Z,100679.72
2018-07-30T02:43:54.963Z,100675.65
2018-07-30T02:46:23.841Z,100676.74
2018-07-30T02:48:52.860Z,100679.20
2018-07-30T02:51:21.690Z,100680.02
2018-07-30T02:53:50.566Z,100681.94
2018-07-30T02:56:19.365Z,100682.23
2018-07-30T02:58:48.274Z,100685.78
2018-07-30T03:01:17.156Z,100686.86
2018-07-30T03:03:46.091Z,100693.41
2018-07-30T03:06:14.984Z,100690.95
2018-07-30T03:08:43.906Z,100698.85
2018-07-30T03:11:12.756Z,100700.47
2018-07-30T03:13:41.593Z,100698.56
2018-07-30T03:16:10.441Z,100701.28
2018-07-30T03:18:39.331Z,100696.38
2018-07-30T03:21:09.394Z,100700.45
2018-07-30T03:23:38.296Z,100712.14
2018-07-30T03:26:07.161Z,100706.17
2018-07-30T03:28:36.184Z,100712.13
2018-07-30T03:31:05.077Z,100702.27
2018-07-30T03:33:33.970Z,100705.56
2018-07-30T03:36:02.842Z,100703.62
2018-07-30T03:38:31.706Z,100704.73
2018-07-30T03:41:00.542Z,100697.91
2018-07-30T03:43:29.472Z,100699.02
2018-07-30T03:45:58.296Z,100706.38
2018-07-30T03:48:27.124Z,100706.41
2018-07-30T03:50:56.073Z,100703.95
2018-07-30T03:53:25.016Z,100712.67
2018-07-30T03:55:53.941Z,100715.92
2018-07-30T03:58:22.837Z,100716.23
2018-07-30T04:00:51.676Z,100711.59
2018-07-30T04:03:20.666Z,100714.05
2018-07-30T04:05:49.480Z,100712.67
2018-07-30T04:08:18.428Z,100709.94
2018-07-30T04:10:47.310Z,100718.37
2018-07-30T04:13:16.222Z,100714.81
2018-07-30T04:15:45.018Z,100713.19
2018-07-30T04:18:13.889Z,100717.03
2018-07-30T04:20:42.800Z,100718.64
2018-07-30T04:23:11.674Z,100724.38
2018-07-30T04:25:40.514Z,100723.81
2018-07-30T04:28:09.360Z,100730.59
2018-07-30T04:30:38.221Z,100720.73
2018-07-30T04:33:07.391Z,100724.52
2018-07-30T04:35:36.249Z,100723.36
2018-07-30T04:38:05.220Z,100726.86
2018-07-30T04:40:34.119Z,100729.51
2018-07-30T04:43:03.035Z,100727.25
2018-07-30T04:45:31.900Z,100734.28
2018-07-30T04:48:00.760Z,100731.48
2018-07-30T04:50:29.597Z,100734.17
2018-07-30T04:52:58.456Z,100735.22
2018-07-30T04:55:27.360Z,100739.83
2018-07-30T04:57:56.162Z,100736.22
2018-07-30T05:00:25.121Z,100741.06
2018-07-30T05:02:53.953Z,100740.09
2018-07-30T05:05:22.786Z,100737.70
2018-07-30T05:07:51.611Z,100745.72
2018-07-30T05:10:20.448Z,100752.20
2018-07-30T05:12:49.273Z,100750.20
2018-07-30T05:15:18.125Z,100747.95
2018-07-30T05:17:46.937Z,100746.20
2018-07-30T05:20:15.777Z,100744.50
2018-07-30T05:22:44.693Z,100751.36
2018-07-30T05:25:13.517Z,100755.82
2018-07-30T05:27:42.294Z,100745.83
2018-07-30T05:30:11.256Z,100755.55
2018-07-30T05:32:40.122Z,100760.89
2018-07-30T05:35:09.054Z,100758.27
2018-07-30T05:37:37.947Z,100755.06
2018-07-30T05:40:06.866Z,100755.63
2018-07-30T05:42:35.741Z,100755.33
2018-07-30T05:45:05.017Z,100756.33
2018-07-30T05:47:33.846Z,100759.19
2018-07-30T05:50:02.781Z,100758.70
2018-07-30T05:52:31.570Z,100758.71
2018-07-30T05:55:00.489Z,100760.06
2018-07-30T05:57:29.365Z,100761.77
2018-07-30T05:59:58.228Z,100765.63
2018-07-30T06:02:27.143Z,100764.98
2018-07-30T06:04:56.022Z,100763.98
2018-07-30T06:07:24.873Z,100767.84
2018-07-30T06:09:53.776Z,100770.55
2018-07-30T06:12:22.606Z,100770.12
2018-07-30T06:14:51.537Z,100763.75
2018-07-30T06:17:20.407Z,100767.70
2018-07-30T06:19:49.333Z,100763.35
2018-07-30T06:22:18.135Z,100769.19
2018-07-30T06:24:46.962Z,100769.27
2018-07-30T06:27:15.863Z,100762.97
2018-07-30T06:29:44.713Z,100766.95
2018-07-30T06:32:13.634Z,100762.94
2018-07-30T06:34:42.512Z,100760.84
2018-07-30T06:37:11.411Z,100764.94
2018-07-30T06:39:40.382Z,100761.91
2018-07-30T06:42:10.271Z,100759.01
2018-07-30T06:44:54.497Z,100762.55
2018-07-30T06:47:23.434Z,100758.90
2018-07-30T06:49:52.336Z,100761.59
2018-07-30T06:52:34.705Z,100767.28
2018-07-30T06:55:06.436Z,100763.45
2018-07-30T06:57:35.350Z,100764.94
2018-07-30T07:00:05.226Z,100760.77
2018-07-30T07:02:34.245Z,100767.58
2018-07-30T07:05:03.168Z,100767.34
2018-07-30T07:07:32.057Z,100767.98
2018-07-30T07:10:00.994Z,100769.83
2018-07-30T07:12:30.012Z,100770.48
2018-07-30T07:14:58.972Z,100772.68
2018-07-30T07:17:27.893Z,100771.52
2018-07-30T07:19:56.805Z,100773.41
2018-07-30T07:22:25.673Z,100785.09
2018-07-30T07:24:54.694Z,100784.99
2018-07-30T07:27:23.678Z,100785.08
2018-07-30T07:29:52.646Z,100786.59
2018-07-30T07:32:21.558Z,100788.66
2018-07-30T07:34:50.484Z,100783.28
2018-07-30T07:37:19.438Z,100782.94
2018-07-30T07:39:48.414Z,100785.56
2018-07-30T07:42:17.373Z,100788.91
2018-07-30T07:44:46.313Z,100785.76
2018-07-30T07:47:15.245Z,100778.10
2018-07-30T07:49:44.273Z,100780.94
2018-07-30T07:52:13.256Z,100787.41
2018-07-30T07:54:42.329Z,100783.64
2018-07-30T07:57:11.302Z,100790.25
2018-07-30T07:59:40.313Z,100788.47
2018-07-30T08:02:09.393Z,100794.08
2018-07-30T08:04:38.414Z,100791.32
2018-07-30T08:07:07.440Z,100789.48
2018-07-30T08:09:36.478Z,100794.59
2018-07-30T08:12:12.116Z,100790.62
2018-07-30T08:14:41.153Z,100788.61
2018-07-30T08:17:10.137Z,100790.55
2018-07-30T08:19:39.112Z,100789.53
2018-07-30T08:22:08.049Z,100792.16
2018-07-30T08:24:36.994Z,100783.48
2018-07-30T08:27:05.956Z,100784.39
2018-07-30T08:29:34.821Z,100786.73
2018-07-30T08:32:03.951Z,100794.17
2018-07-30T08:34:32.936Z,100792.33
2018-07-30T08:37:01.842Z,100796.23
2018-07-30T08:39:30.802Z,100791.50
2018-07-30T08:42:12.728Z,100787.13
2018-07-30T08:44:41.731Z,100791.41
2018-07-30T08:47:24.054Z,100789.74
2018-07-30T08:49:53.114Z,100794.03
2018-07-30T08:52:23.141Z,100794.92
2018-07-30T08:54:52.460Z,100798.15
2018-07-30T08:57:21.327Z,100786.20
2018-07-30T08:59:50.196Z,100788.11
2018-07-30T09:02:21.278Z,100790.20
2018-07-30T09:04:50.332Z,100793.00
2018-07-30T09:07:19.256Z,100783.28
2018-07-30T09:09:48.157Z,100789.93
2018-07-30T09:12:17.076Z,100784.25
2018-07-30T09:14:46.170Z,100779.97
2018-07-30T09:17:15.222Z,100777.19
2018-07-30T09:19:44.197Z,100778.89
2018-07-30T09:22:15.195Z,100781.59
2018-07-30T09:24:44.152Z,100785.52
2018-07-30T09:27:13.025Z,100794.58
2018-07-30T09:29:42.123Z,100793.22
2018-07-30T09:32:11.098Z,100793.48
2018-07-30T09:34:40.073Z,100797.82
2018-07-30T09:37:09.099Z,100800.80
2018-07-30T09:39:38.091Z,100801.13
2018-07-30T09:42:07.148Z,100798.69
2018-07-30T09:44:36.149Z,100795.71
2018-07-30T09:47:04.999Z,100800.19
2018-07-30T09:49:34.025Z,100800.56
2018-07-30T09:52:03.019Z,100792.58
2018-07-30T09:54:32.014Z,100791.45
2018-07-30T09:57:01.010Z,100790.80
2018-07-30T09:59:30.548Z,100780.38
2018-07-30T10:01:59.582Z,100778.30
2018-07-30T10:04:31.168Z,100773.56
2018-07-30T10:07:00.059Z,100774.86
2018-07-30T10:09:29.048Z,100778.57
2018-07-30T10:11:58.011Z,100770.04
2018-07-30T10:14:27.300Z,100774.53
2018-07-30T10:16:56.402Z,100776.29
2018-07-30T10:19:31.102Z,100769.45
2018-07-30T10:22:20.651Z,100769.00
2018-07-30T10:24:55.533Z,100769.72
2018-07-30T10:27:24.844Z,100772.56
2018-07-30T10:29:53.722Z,100758.11
2018-07-30T10:32:22.966Z,100763.92
2018-07-30T10:34:52.037Z,100754.58
2018-07-30T10:37:21.040Z,100770.16
2018-07-30T10:39:54.283Z,100763.89
2018-07-30T10:42:23.308Z,100766.61
2018-07-30T10:44:52.286Z,100762.44
2018-07-30T10:47:21.277Z,100766.59
2018-07-30T10:49:56.277Z,100763.77
2018-07-30T10:52:26.517Z,100769.38
2018-07-30T10:54:55.497Z,100761.32
2018-07-30T10:57:24.431Z,100756.46
2018-07-30T10:59:54.073Z,100763.94
2018-07-30T11:02:23.814Z,100760.38
2018-07-30T11:04:54.560Z,100754.06
2018-07-30T11:07:25.315Z,100753.95
2018-07-30T11:09:56.377Z,100747.76
2018-07-30T11:12:26.899Z,100748.16
2018-07-30T11:14:57.663Z,100747.15
2018-07-30T11:17:30.815Z,100750.18
2018-07-30T11:20:01.027Z,100740.62
2018-07-30T11:22:33.024Z,100739.97
2018-07-30T11:25:02.605Z,100737.13
2018-07-30T11:27:33.660Z,100732.30
2018-07-30T11:30:02.795Z,100742.21
2018-07-30T11:32:31.819Z,100740.44
2018-07-30T11:35:04.260Z,100741.94
2018-07-30T11:37:33.143Z,100743.53
2018-07-30T11:40:02.178Z,100733.38
2018-07-30T11:42:31.132Z,100733.12
2018-07-30T11:45:04.928Z,100728.80
2018-07-30T11:47:33.828Z,100728.05
2018-07-30T11:50:02.859Z,100725.17
2018-07-30T11:52:32.009Z,100721.80
2018-07-30T11:55:00.880Z,100721.50
2018-07-30T11:57:29.832Z,100721.13
2018-07-30T11:59:58.876Z,100719.20
2018-07-30T12:02:30.503Z,100718.84
2018-07-30T12:05:08.824Z,100714.87
2018-07-30T12:07:37.702Z,100713.59
2018-07-30T12:10:06.678Z,100711.05
2018-07-30T12:12:35.598Z,100704.88
2018-07-30T12:15:21.162Z,100700.48
2018-07-30T12:17:50.025Z,100697.19
2018-07-30T12:20:18.971Z,100698.60
2018-07-30T12:22:48.120Z,100699.09
2018-07-30T12:25:17.240Z,100697.66
2018-07-30T12:27:46.283Z,100693.93
2018-07-30T12:30:15.356Z,100697.66
2018-07-30T12:32:44.312Z,100695.16
2018-07-30T12:35:47.370Z,100697.56
2018-07-30T12:38:16.234Z,100692.25
2018-07-30T12:40:45.311Z,100701.25
2018-07-30T12:43:15.086Z,100691.60
2018-07-30T12:45:47.507Z,100699.03
2018-07-30T12:48:16.557Z,100691.04
2018-07-30T12:50:45.750Z,100690.55
2018-07-30T12:53:14.768Z,100673.16
2018-07-30T12:55:48.660Z,100676.86
2018-07-30T12:58:17.578Z,100665.81
2018-07-30T13:00:46.489Z,100668.80
2018-07-30T13:03:15.542Z,100662.84
2018-07-30T13:05:44.453Z,100659.48
2018-07-30T13:08:13.396Z,100654.50
2018-07-30T13:10:42.395Z,100659.36
2018-07-30T13:13:11.421Z,100658.20
2018-07-30T13:15:40.458Z,100660.03
2018-07-30T13:18:09.300Z,100651.25
2018-07-30T13:20:38.279Z,100654.21
2018-07-30T13:23:07.306Z,100661.17
2018-07-30T13:25:37.686Z,100665.31
2018-07-30T13:28:06.813Z,100656.23
2018-07-30T13:30:35.838Z,100648.14
2018-07-30T13:33:04.850Z,100647.63
2018-07-30T13:35:33.917Z,100650.63
2018-07-30T13:38:02.951Z,100644.61
2018-07-30T13:40:31.994Z,100646.84
2018-07-30T13:43:01.082Z,100638.78
2018-07-30T13:45:32.084Z,100633.37
2018-07-30T13:48:01.180Z,100634.14
2018-07-30T13:50:30.693Z,100629.91
2018-07-30T13:52:59.708Z,100621.50
2018-07-30T13:55:28.676Z,100625.75
2018-07-30T13:57:57.677Z,100628.94
2018-07-30T14:00:26.669Z,100627.58
2018-07-30T14:02:55.692Z,100625.11
2018-07-30T14:05:25.738Z,100626.87
2018-07-30T14:07:54.865Z,100628.03
2018-07-30T14:10:23.905Z,100640.71
2018-07-30T14:12:53.046Z,100634.22
2018-07-30T14:15:29.344Z,100633.08
2018-07-30T14:17:58.352Z,100632.18
2018-07-30T14:20:27.478Z,100633.19
2018-07-30T14:22:56.544Z,100636.38
2018-07-30T14:25:33.033Z,100632.88
2018-07-30T14:28:02.167Z,100636.84
2018-07-30T14:30:31.150Z,100631.77
2018-07-30T14:33:00.094Z,100628.69
2018-07-30T14:35:30.787Z,100629.06
2018-07-30T14:38:00.151Z,100634.70
2018-07-30T14:40:30.620Z,100630.17
2018-07-30T14:43:00.210Z,100630.98
2018-07-30T14:45:30.279Z,100625.99
2018-07-30T14:47:59.240Z,100623.50
2018-07-30T14:50:38.202Z,100621.08
2018-07-30T14:53:08.153Z,100612.38
2018-07-30T14:55:41.182Z,100607.41
2018-07-30T14:58:22.585Z,100614.22
2018-07-30T15:00:51.882Z,100600.28
2018-07-30T15:03:20.945Z,100606.51
2018-07-30T15:05:53.403Z,100607.47
2018-07-30T15:08:22.360Z,100608.68
2018-07-30T15:10:51.373Z,100603.75
2018-07-30T15:13:20.420Z,100603.45
2018-07-30T15:15:49.360Z,100599.75
2018-07-30T15:18:18.379Z,100592.02
2018-07-30T15:20:47.344Z,100595.77
2018-07-30T15:23:16.320Z,100594.77
2018-07-30T15:25:45.311Z,100595.08
2018-07-30T15:28:14.230Z,100594.88
2018-07-30T15:30:43.225Z,100597.56
2018-07-30T15:33:12.224Z,100594.47
2018-07-30T15:35:41.204Z,100593.28
2018-07-30T15:38:10.207Z,100589.10
2018-07-30T15:40:39.213Z,100582.85
2018-07-30T15:43:08.224Z,100585.84
2018-07-30T15:45:37.230Z,100581.39
2018-07-30T15:48:06.306Z,100576.69
2018-07-30T15:50:35.223Z,100580.00
2018-07-30T15:53:04.318Z,100581.83
2018-07-30T15:55:33.287Z,100580.78
2018-07-30T15:58:02.196Z,100581.03
2018-07-30T16:00:31.063Z,100572.59
2018-07-30T16:02:59.974Z,100572.97
2018-07-30T16:05:29.022Z,100570.41
2018-07-30T16:07:57.933Z,100575.02
2018-07-30T16:10:26.958Z,100570.81
2018-07-30T16:12:55.838Z,100577.22
2018-07-30T16:15:24.911Z,100577.08
2018-07-30T16:17:54.045Z,100572.38
2018-07-30T16:20:22.981Z,100580.25
2018-07-30T16:22:52.056Z,100581.41
2018-07-30T16:25:21.033Z,100576.53
2018-07-30T16:27:49.952Z,100570.72
2018-07-30T16:30:18.948Z,100574.41
2018-07-30T16:32:48.080Z,100572.66
2018-07-30T16:35:17.268Z,100568.69
2018-07-30T16:37:46.308Z,100572.56
2018-07-30T16:40:15.354Z,100565.31
2018-07-30T16:42:44.305Z,100563.45
2018-07-30T16:45:13.223Z,100561.52
2018-07-30T16:47:42.172Z,100563.59
2018-07-30T16:50:11.291Z,100566.83
2018-07-30T16:52:40.269Z,100567.95
2018-07-30T16:55:09.374Z,100565.67
2018-07-30T16:57:38.386Z,100566.92
2018-07-30T17:00:10.050Z,100564.45
2018-07-30T17:02:39.103Z,100564.38
2018-07-30T17:05:08.337Z,100566.74
2018-07-30T17:07:37.262Z,100570.17
2018-07-30T17:10:06.410Z,100578.67
2018-07-30T17:12:35.426Z,100574.15
2018-07-30T17:15:04.503Z,100576.13
2018-07-30T17:17:33.353Z,100574.16
2018-07-30T17:20:02.449Z,100569.53
2018-07-30T17:22:31.437Z,100584.44
2018-07-30T17:25:00.439Z,100588.91
2018-07-30T17:27:29.548Z,100579.56
2018-07-30T17:29:58.671Z,100583.23
2018-07-30T17:32:27.559Z,100580.73
2018-07-30T17:34:56.598Z,100579.34
2018-07-30T17:37:25.611Z,100577.61
2018-07-30T17:39:54.680Z,100584.47
2018-07-30T17:42:23.574Z,100576.66
2018-07-30T17:44:52.668Z,100577.57
2018-07-30T17:47:21.598Z,100578.66
2018-07-30T17:49:50.548Z,100572.77
2018-07-30T17:52:20.568Z,100579.80
2018-07-30T17:54:49.589Z,100574.36
2018-07-30T17:57:18.459Z,100573.59
2018-07-30T17:59:47.513Z,100568.16
2018-07-30T18:02:16.533Z,100579.89
2018-07-30T18:04:45.478Z,100576.22
2018-07-30T18:07:14.516Z,100575.23
2018-07-30T18:09:43.551Z,100583.02
2018-07-30T18:12:12.619Z,100588.55
2018-07-30T18:14:41.663Z,100584.58
2018-07-30T18:17:10.709Z,100588.44
2018-07-30T18:19:39.671Z,100586.98
2018-07-30T18:22:08.570Z,100587.16
2018-07-30T18:24:37.521Z,100592.25
2018-07-30T18:27:06.428Z,100586.71
2018-07-30T18:29:35.504Z,100588.89
2018-07-30T18:32:04.435Z,100592.55
2018-07-30T18:34:33.507Z,100588.80
2018-07-30T18:37:02.504Z,100585.52
2018-07-30T18:39:31.613Z,100584.41
2018-07-30T18:42:00.580Z,100585.64
2018-07-30T18:44:29.544Z,100585.45
2018-07-30T18:46:58.564Z,100585.70
2018-07-30T18:49:27.459Z,100590.66
2018-07-30T18:51:56.536Z,100587.11
2018-07-30T18:54:25.525Z,100589.37
2018-07-30T18:56:54.455Z,100589.04
2018-07-30T18:59:23.469Z,100592.06
2018-07-30T19:01:52.459Z,100593.54
2018-07-30T19:04:21.615Z,100596.83
2018-07-30T19:06:50.533Z,100608.34
2018-07-30T19:09:19.579Z,100606.41
2018-07-30T19:11:48.645Z,100611.44
2018-07-30T19:14:17.657Z,100612.45
2018-07-30T19:16:51.953Z,100612.29
2018-07-30T19:19:21.275Z,100612.83
2018-07-30T19:21:50.333Z,100619.03
2018-07-30T19:24:20.132Z,100631.17
2018-07-30T19:26:49.160Z,100622.00
2018-07-30T19:29:18.275Z,100627.85
2018-07-30T19:31:47.375Z,100629.70
2018-07-30T19:34:16.470Z,100638.47
2018-07-30T19:36:45.577Z,100641.22
2018-07-30T19:39:14.874Z,100650.20
2018-07-30T19:41:43.975Z,100645.15
2018-07-30T19:44:13.140Z,100650.94
2018-07-30T19:46:42.021Z,100646.42
2018-07-30T19:49:10.911Z,100645.14
2018-07-30T19:51:40.136Z,100644.73
2018-07-30T19:54:12.409Z,100646.23
2018-07-30T19:56:41.405Z,100645.58
2018-07-30T19:59:10.502Z,100647.89
2018-07-30T20:01:39.473Z,100650.09
2018-07-30T20:04:08.445Z,100654.23
2018-07-30T20:06:37.467Z,100656.00
2018-07-30T20:09:09.550Z,100658.23
2018-07-30T20:11:38.390Z,100659.37
2018-07-30T20:14:07.281Z,100652.88
2018-07-30T20:16:36.823Z,100654.33
2018-07-30T20:19:05.909Z,100653.62
2018-07-30T20:21:34.954Z,100657.52
2018-07-30T20:24:03.962Z,100659.55
2018-07-30T20:26:34.128Z,100668.44
2018-07-30T20:29:03.118Z,100662.19
2018-07-30T20:31:32.073Z,100666.59
2018-07-30T20:34:01.004Z,100661.13
2018-07-30T20:36:30.253Z,100668.71
2018-07-30T20:38:59.162Z,100668.36
2018-07-30T20:41:28.162Z,100669.73
2018-07-30T20:43:57.278Z,100674.63
2018-07-30T20:46:26.276Z,100669.31
2018-07-30T20:48:55.162Z,100667.49
2018-07-30T20:51:24.097Z,100672.27
2018-07-30T20:53:53.188Z,100672.69
2018-07-30T20:56:22.228Z,100674.63
2018-07-30T20:58:51.198Z,100680.25
2018-07-30T21:01:20.308Z,100685.56
2018-07-30T21:03:49.246Z,100681.83
2018-07-30T21:06:18.189Z,100683.02
2018-07-30T21:08:47.202Z,100684.77
2018-07-30T21:11:16.671Z,100691.13
2018-07-30T21:13:45.680Z,100686.63
2018-07-30T21:16:14.692Z,100683.80
2018-07-30T21:18:43.704Z,100678.66
2018-07-30T21:21:12.742Z,100686.45
2018-07-30T21:23:41.716Z,100684.09
2018-07-30T21:26:10.610Z,100680.30
2018-07-30T21:28:39.624Z,100681.84
2018-07-30T21:31:08.703Z,100684.25
2018-07-30T21:33:37.710Z,100681.05
2018-07-30T21:36:06.933Z,100684.66
2018-07-30T21:38:35.919Z,100685.22
2018-07-30T21:41:04.905Z,100688.55
2018-07-30T21:43:34.058Z,100686.80
2018-07-30T21:46:02.964Z,100687.95
2018-07-30T21:48:31.856Z,100687.89
2018-07-30T21:51:00.760Z,100682.00
2018-07-30T21:53:29.790Z,100681.60
2018-07-30T21:55:58.806Z,100681.44
2018-07-30T21:58:27.815Z,100677.96
2018-07-30T22:00:58.124Z,100685.14
2018-07-30T22:03:27.767Z,100680.39
2018-07-30T22:06:00.812Z,100679.72
2018-07-30T22:08:30.125Z,100685.62
2018-07-30T22:10:59.282Z,100687.29
2018-07-30T22:13:28.140Z,100688.50
2018-07-30T22:15:58.226Z,100695.18
2018-07-30T22:18:27.214Z,100691.77
2018-07-30T22:20:56.367Z,100692.67
2018-07-30T22:23:25.370Z,100698.76
2018-07-30T22:25:54.296Z,100698.05
2018-07-30T22:28:23.163Z,100697.52
2018-07-30T22:30:52.285Z,100698.86
2018-07-30T22:33:21.260Z,100697.50
2018-07-30T22:35:50.315Z,100699.28
2018-07-30T22:38:19.281Z,100699.33
2018-07-30T22:40:48.248Z,100700.69
2018-07-30T22:43:17.136Z,100707.02
2018-07-30T22:45:46.181Z,100706.02
2018-07-30T22:48:15.124Z,100716.61
2018-07-30T22:50:44.140Z,100715.11
2018-07-30T22:53:13.126Z,100710.09
2018-07-30T22:55:42.210Z,100705.53
2018-07-30T22:58:11.220Z,100714.76
2018-07-30T23:00:40.165Z,100711.31
2018-07-30T23:03:09.361Z,100696.64
2018-07-30T23:05:38.338Z,100696.27
2018-07-30T23:08:07.447Z,100698.20
2018-07-30T23:10:36.396Z,100695.72
2018-07-30T23:13:05.344Z,100689.15
2018-07-30T23:15:34.397Z,100686.34
2018-07-30T23:18:03.494Z,100687.13
2018-07-30T23:20:32.390Z,100690.35
2018-07-30T23:23:01.239Z,100690.61
2018-07-30T23:25:30.233Z,100687.29
2018-07-30T23:27:59.277Z,100686.95
2018-07-30T23:30:28.156Z,100685.77
2018-07-30T23:32:57.223Z,100680.97
2018-07-30T23:35:26.085Z,100680.23
2018-07-30T23:37:55.026Z,100676.16
2018-07-30T23:40:24.092Z,100679.86
2018-07-30T23:42:53.066Z,100677.80
2018-07-30T23:45:22.046Z,100672.98
2018-07-30T23:47:51.073Z,100675.67
2018-07-30T23:50:20.030Z,100681.51
2018-07-30T23:52:48.959Z,100690.24
2018-07-30T23:55:18.110Z,100685.58
2018-07-30T23:57:47.173Z,100684.15
